Weather observations for the past three days for
Aurora, Aurora Municipal Airport
Imperial (Metric)
Date Time (cdt) Wind (mph) Vis. (mi.) Weather Sky Cond. Temperature (ºF) Relative Humidity Wind Chill (°F) Heat Index (°F) Pressure Precipitation (in)
Air Dwpt 6 hour altimeter (in) sea level (mb) 1 hr 3 hr 6 hr
Max. Min.
05 06:15 S 3 10.00 Fair CLR 70 68.9 96% 29.91 0.0
05 05:55 SE 3 10.00 Fair CLR 70.3 69.3 96% 29.92 0.0
05 05:35 Calm 10.00 Fair CLR 70.9 69.3 95% 29.92 0.0
05 05:15 S 5 10.00 Fair CLR 72 69.8 93% 29.91 0.0
05 04:55 S 5 10.00 Fair CLR 71.8 69.8 94% 29.9 0.0
05 04:35 S 3 10.00 Fair CLR 70.7 69.8 97% 29.91 0.0
05 04:15 SE 3 10.00 Fair CLR 71.8 70.2 95% 29.91 0.0
05 03:55 S 5 10.00 Fair CLR 72.5 70.7 94% 29.92 0.0
05 03:35 SE 3 10.00 Fair CLR 72.3 70.9 95% 29.92 0.0
05 03:15 S 3 10.00 Fair CLR 73 70.7 92% 29.92 0.0
05 02:55 SE 5 10.00 Fair CLR 72.5 70.7 94% 29.93 0.0
05 02:35 S 3 10.00 Fair CLR 73.4 71.2 93% 29.93 0.0
05 02:15 SE 5 10.00 Fair CLR 73 71.6 95% 29.93 0.0
05 01:55 SE 5 10.00 Fair CLR 73 71.6 95% 29.93 0.0
05 01:35 SE 3 10.00 Fair CLR 72.9 71.6 96% 29.94 0.0
05 01:15 SE 5 10.00 Fair CLR 73.8 72.1 95% 29.94 0.0
05 00:55 SE 5 10.00 Fair CLR 74.5 72.1 87.8 74.5 92% 29.94 0.0
05 00:35 SE 5 10.00 Fair CLR 75.6 72.3 90% 75 29.93 0.0
05 00:15 SE 3 10.00 Fair CLR 75.7 72.5 90% 76 29.93 0.0
04 23:55 SE 5 10.00 Fair CLR 75.6 72.9 91% 75 29.93 0.0
04 23:35 SE 3 10.00 Fair CLR 75.7 73.4 92% 75 29.93 0.0
04 23:15 SE 5 10.00 Fair CLR 75.2 73.4 94% 74 29.93 0.0
04 22:55 SE 5 10.00 Fair CLR 76.1 74.1 94% 76 29.93 0.0
04 22:35 SE 3 10.00 Fair CLR 77.9 74.5 89% 80 29.93 0.0
04 22:15 SE 6 10.00 Fair CLR 78.3 75 90% 81 29.92 0.0
04 21:55 E 5 10.00 Fair CLR 78.1 75.7 93% 81 29.92 0.0
04 21:35 E 6 10.00 Fair CLR 78.4 76.1 93% 82 29.91 0.0
04 21:15 E 6 10.00 Fair CLR 79.2 76.1 90% 83 29.91 0.0
04 20:55 SE 5 10.00 Fair CLR 81.3 76.1 84% 88 29.9 0.0
04 20:35 SE 6 10.00 Fair CLR 83.3 76.1 79% 92 29.89 0.0
04 20:15 SE 7 10.00 Fair CLR 83.8 76.3 78% 93 29.89 0.0
04 19:55 SE 7 10.00 Fair CLR 84.9 76.6 76% 95 29.89 0.0
04 19:35 SE 5 10.00 Fair CLR 86.5 77.2 74% 98 29.89 0.0
04 19:15 E 6 10.00 Fair CLR 86.9 77.5 74% 99 29.89 0.0
04 18:55 SE 6 10.00 Fair CLR 87.3 77.2 92.7 87.3 72% 99 29.89 0.0
04 18:35 SE 7 10.00 Fair CLR 88.9 76.5 67% 101 29.89 0.0
04 18:15 E 8 10.00 Fair CLR 90.3 76.5 64% 103 29.89 0.0
04 17:55 E 7 10.00 Fair CLR 91.2 75.6 60% 103 29.89 0.0
04 17:35 E 6 10.00 Fair CLR 91.4 77.5 64% 106 29.9 0.0
04 17:15 E 7 10.00 Fair CLR 88.9 77 68% 101 29.9 0.0
04 16:55 E 7 10.00 Fair CLR 88.9 77.5 69% 102 29.89 0.0
04 16:35 E 7 10.00 Partly Cloudy SCT090 87.4 77.4 72% 100 29.9 0.0
04 16:15 E 6 10.00 Fair CLR 88.2 77.7 71% 101 29.9 0.0
04 15:55 E 6 10.00 Fair CLR 89.6 76.5 65% 102 29.91 0.0
04 15:35 Calm 10.00 Fair CLR 89.8 76.3 65% 102 29.91 0.0
04 15:15 SE 3 10.00 Fair CLR 90.1 75.9 63% 102 29.91 0.0
04 14:55 SE 3 10.00 Fair CLR 89.8 75.4 63% 101 29.91 0.0
04 14:35 SE 5 10.00 Fair CLR 90.9 73.2 56% 100 29.91 0.0
04 14:15 SE 5 10.00 Fair CLR 91.2 73.6 56% 100 29.92 0.0
04 13:55 SE 7 10.00 Fair CLR 91.9 74.7 57% 103 29.92 0.0
04 13:35 SW 3 10.00 Fair CLR 91.4 72.3 54% 99 29.92 0.0
04 13:15 SW 3 10.00 Fair CLR 90.7 72.9 56% 99 29.92 0.0
04 12:55 S 5 10.00 Fair CLR 90.9 71.6 91.9 72.9 53% 98 29.93 0.0
04 12:35 S 5 10.00 Fair CLR 91.6 72.7 54% 100 29.93 0.0
04 12:15 SW 5 10.00 Fair CLR 90.5 72.7 56% 99 29.93 0.0
04 11:55 SW 6 10.00 Fair CLR 89.8 71.8 55% 97 29.93 0.0
04 11:35 SW 8 10.00 Fair CLR 89.1 72.9 59% 97 29.92 0.0
04 11:15 SW 6 10.00 Fair CLR 88.2 72 59% 95 29.92 0.0
04 10:55 SW 8 10.00 Fair CLR 87.1 72 61% 94 29.92 0.0
04 10:35 SW 8 10.00 Fair CLR 86 71.6 62% 92 29.92 0.0
04 10:15 SW 8 10.00 Fair CLR 84.2 72.1 67% 90 29.91 0.0
04 09:55 SW 10 10.00 Fair CLR 82.4 71.2 69% 87 29.91 0.0
04 09:35 SW 12 G 16 10.00 Fair CLR 81.7 70.7 69% 86 29.9 0.0
04 09:15 SW 7 10.00 Fair CLR 80.6 71.1 73% 84 29.9 0.0
04 08:55 SW 7 10.00 Partly Cloudy SCT110 78.3 70.9 78% 81 29.9 0.0
04 08:35 S 6 10.00 Partly Cloudy SCT110 74.7 69.6 84% 29.9 0.0
04 08:15 S 5 10.00 Partly Cloudy SCT110 74.5 69.1 83% 29.9 0.0
04 07:55 SW 5 10.00 Fair CLR 74.1 68.9 84% 29.9 0.0
04 07:35 SW 7 10.00 Fair CLR 73.6 68.5 84% 29.89 0.0
04 07:15 S 7 10.00 Fair CLR 73.2 68.2 84% 29.89 0.0
04 06:55 S 6 10.00 Fair CLR 72.9 68 80.8 72.7 85% 29.88 0.0
04 06:35 S 6 10.00 Fair CLR 73.4 68 83% 29.88 0.0
04 06:15 S 6 10.00 Fair CLR 73.8 68 82% 29.88 0.0
04 05:55 S 7 10.00 Fair CLR 73.6 68 83% 29.88 0.0
04 05:35 S 6 10.00 Fair CLR 74.3 67.6 80% 29.88 0.0
04 05:15 S 7 10.00 Fair CLR 75.2 67.5 77% 76 29.88 0.0
04 04:55 S 9 10.00 Fair CLR 76.1 67.3 74% 78 29.87 0.0
04 04:35 S 10 10.00 Fair CLR 76.8 67.1 72% 79 29.86 0.0
04 04:15 S 9 10.00 Fair CLR 76.8 67.1 72% 79 29.86 0.0
04 03:55 S 8 10.00 Fair CLR 77.4 66.6 69% 79 29.86 0.0
04 03:35 S 9 10.00 Fair CLR 77.9 66.6 68% 80 29.86 0.0
04 03:15 S 12 G 17 10.00 Fair CLR 78.6 66.2 66% 81 29.85 0.0
04 02:55 S 13 G 18 10.00 Fair CLR 78.8 66.2 65% 81 29.85 0.0
04 02:35 S 10 G 18 10.00 Fair CLR 79.2 66.2 65% 81 29.85 0.0
04 02:15 S 12 G 17 10.00 Fair CLR 79.9 66.2 63% 82 29.85 0.0
04 01:55 S 14 G 18 10.00 Fair CLR 79.9 65.8 62% 82 29.85 0.0
04 01:35 S 14 G 21 10.00 Fair CLR 80.6 65.7 60% 83 29.85 0.0
04 01:15 S 16 G 20 10.00 Fair CLR 80.2 65.8 62% 82 29.84 0.0
04 00:55 S 13 G 17 10.00 Fair CLR 79.2 66.2 93.2 76.3 65% 81 29.84 0.0
04 00:35 S 13 10.00 Fair CLR 77.9 67.1 70% 80 29.83 0.0
04 00:15 S 10 10.00 Fair CLR 77 67.8 73% 79 29.83 0.0
03 23:55 S 8 10.00 Fair CLR 76.6 68.4 76% 78 29.83 0.0
03 23:15 S 9 10.00 Fair CLR 77.4 69.1 76% 79 29.83 0.0
03 22:55 SE 7 10.00 Fair CLR 78.1 69.4 75% 80 29.83 0.0
03 22:35 S 9 10.00 Fair CLR 82.4 68.5 63% 86 29.82 0.0
03 22:15 S 8 10.00 Fair CLR 83.3 68.9 62% 87 29.82 0.0
03 21:55 S 6 10.00 Fair CLR 81.7 70.7 69% 86 29.82 0.0
03 21:35 S 6 10.00 Fair CLR 81 71.8 74% 85 29.82 0.0
03 21:15 SE 7 10.00 Fair CLR 81.9 72.1 72% 87 29.81 0.0
03 20:55 SE 5 10.00 Fair CLR 82.9 73.4 73% 89 29.8 0.0
03 20:35 Calm 10.00 Fair CLR 86 73.4 66% 93 29.79 0.0
03 20:15 Calm 10.00 Fair CLR 84.2 75.4 75% 93 29.79 0.0
03 19:55 NE 3 10.00 Fair CLR 86.4 75.9 71% 96 29.78 0.0
03 19:35 E 3 10.00 Fair CLR 88.9 75.6 65% 100 29.78 0.0
03 19:15 Calm 10.00 Fair CLR 92.8 74.3 55% 103 29.77 0.0
03 18:55 Calm 10.00 Fair CLR 93.4 75 97 91.6 55% 105 29.77 0.0
03 18:35 SE 5 10.00 Fair CLR 94.1 73.8 52% 104 29.77 0.0
03 18:15 SE 5 10.00 Fair CLR 94.5 74.3 52% 105 29.77 0.0
03 17:55 S 3 10.00 Fair CLR 96.4 70 42% 103 29.77 0.0
03 17:35 S 7 10.00 Fair CLR 96.8 68.4 40% 102 29.77 0.0
03 17:15 S 7 10.00 Fair CLR 96.4 70.9 44% 104 29.77 0.0
03 16:55 SW 5 10.00 Fair CLR 95.5 71.4 46% 104 29.77 0.0
03 16:35 S 5 10.00 Fair CLR 95.7 71.2 45% 104 29.78 0.0
03 16:15 SW 6 10.00 Fair CLR 95.4 71.4 46% 103 29.78 0.0
03 15:55 SW 6 10.00 Fair CLR 95.7 71.4 45% 104 29.78 0.0
03 15:35 S 9 10.00 Fair CLR 95.5 71.8 46% 104 29.79 0.0
03 15:15 SW 10 10.00 Fair CLR 95.5 71.6 46% 104 29.79 0.0
03 14:55 SW 9 G 16 10.00 Fair CLR 95 70.2 45% 102 29.79 0.0
03 14:35 SW 10 G 16 10.00 Fair CLR 94.5 69.4 44% 100 29.8 0.0
03 14:15 S 10 10.00 Fair CLR 94.1 69.4 45% 100 29.8 0.0
03 13:55 SW 14 G 17 10.00 Fair CLR 93.4 69.6 46% 99 29.81 0.0
03 13:35 SW 12 G 20 10.00 Fair CLR 92.7 68.9 46% 98 29.82 0.0
03 13:15 SW 13 10.00 Fair CLR 91.8 68.7 47% 96 29.82 0.0
03 12:55 SW 8 10.00 Fair CLR 91.6 69.6 91.6 73.8 49% 97 29.83 0.0
03 12:35 SW 13 G 18 10.00 Fair CLR 90.7 69.3 49% 96 29.84 0.0
03 12:15 SW 13 10.00 Fair CLR 89.6 68.4 50% 94 29.84 0.0
03 11:55 SW 14 G 20 10.00 Fair CLR 89.6 68.9 51% 94 29.84 0.0
03 11:35 SW 13 G 17 10.00 Fair CLR 88.7 68.7 52% 93 29.85 0.0
03 11:15 S 9 10.00 Fair CLR 87.8 68.5 53% 92 29.84 0.0
03 10:55 S 8 10.00 Fair CLR 86.4 69.4 57% 91 29.85 0.0
03 10:35 S 9 10.00 Fair CLR 84.9 68.2 57% 88 29.85 0.0
03 10:15 S 9 10.00 Fair CLR 83.3 67.6 59% 86 29.85 0.0
03 09:55 SW 7 10.00 Fair CLR 82.6 67.8 61% 86 29.86 0.0
03 09:35 S 9 10.00 Fair CLR 81.1 66.6 61% 83 29.84 0.0
03 09:15 SW 6 10.00 Fair CLR 79 66.7 66% 81 29.86 0.0
03 08:55 S 6 10.00 Fair CLR 78.1 66.2 67% 80 29.86 0.0
03 08:35 W 3 10.00 Fair CLR 77.4 66 68% 79 29.86 0.0
03 08:15 W 3 10.00 Fair CLR 74.7 65.5 73% 29.86 0.0
03 07:55 SW 6 10.00 Fair CLR 75 64.9 71% 77 29.84 0.0
03 07:35 S 8 10.00 Fair CLR 74.3 64.6 72% 29.83 0.0
03 07:15 S 9 10.00 Fair CLR 73.8 64.6 73% 29.83 0.0
03 06:55 S 8 10.00 Fair CLR 74.1 64.6 79.3 74.1 72% 29.83 0.0
03 06:35 S 7 10.00 Fair CLR 74.3 64.6 72% 29.83 0.0
03 06:15 S 7 10.00 Fair CLR 74.8 64.4 70% 29.83 0.0
03 05:55 S 8 10.00 Fair CLR 75.4 64.4 69% 77 29.83 0.0
03 05:35 S 10 10.00 Fair CLR 76.1 64.4 67% 78 29.83 0.0
03 05:15 S 10 10.00 Fair CLR 76.5 64.4 66% 78 29.83 0.0
03 04:55 S 12 10.00 Fair CLR 76.5 64.4 66% 78 29.83 0.0
03 04:35 S 12 10.00 Fair CLR 77 64.4 65% 79 29.83 0.0
03 04:15 S 10 10.00 Fair CLR 77.2 64.4 65% 79 29.83 0.0
03 03:55 S 12 G 16 10.00 Fair CLR 77.9 64.4 63% 80 29.83 0.0
03 03:35 S 12 G 21 10.00 Fair CLR 78.3 64.4 63% 80 29.83 0.0
03 03:15 S 13 G 21 10.00 Fair CLR 78.4 64.2 62% 80 29.83 0.0
03 02:55 S 13 G 18 10.00 Fair CLR 78.4 64.2 62% 80 29.83 0.0
03 02:35 S 12 G 18 10.00 Fair CLR 78.8 64.2 61% 81 29.83 0.0
03 02:15 S 14 10.00 Fair CLR 79 64 60% 81 29.83 0.0
03 01:55 S 12 G 20 10.00 Fair CLR 79.3 63.9 59% 81 29.83 0.0
03 01:35 S 14 10.00 Fair CLR 79.2 64 60% 81 29.84 0.0
03 01:15 S 13 G 22 10.00 Fair CLR 79 64 60% 81 29.83 0.0
03 00:55 S 12 10.00 Fair CLR 79 64.4 88.9 78.8 61% 81 29.83 0.0
03 00:35 S 10 10.00 Fair CLR 78.8 64.6 62% 81 29.84 0.0
03 00:15 S 12 G 17 10.00 Fair CLR 79.3 64.8 61% 81 29.83 0.0
02 23:55 S 13 10.00 Fair CLR 80.4 64.6 59% 82 29.84 0.0
02 23:15 S 12 10.00 Fair CLR 81.9 64.6 56% 84 29.83 0.0
02 22:55 S 10 G 17 10.00 Fair CLR 81.5 64.9 57% 83 29.83 0.0
02 22:35 S 12 10.00 Fair CLR 81.1 65.3 59% 83 29.83 0.0
02 22:15 S 12 10.00 Fair CLR 81 65.7 60% 83 29.83 0.0
02 21:55 S 10 10.00 Fair CLR 80.4 66.6 63% 83 29.83 0.0
02 21:35 SE 10 10.00 Fair CLR 79.7 67.6 67% 82 29.82 0.0
02 21:15 SE 9 10.00 Fair CLR 80.1 68.2 67% 83 29.82 0.0
02 20:55 SE 9 10.00 Fair CLR 81 68.7 66% 84 29.81 0.0
02 20:35 SE 9 10.00 Fair CLR 81.5 69.1 66% 85 29.8 0.0
02 20:15 SE 9 10.00 Fair CLR 82 70 67% 86 29.8 0.0
02 19:55 SE 7 10.00 Fair CLR 83.7 70.9 66% 88 29.8 0.0
02 19:35 SE 7 10.00 Fair CLR 85.3 72 64% 91 29.8 0.0
02 19:15 SE 7 10.00 Fair CLR 87.4 72.7 62% 95 29.8 0.0
02 18:55 SE 8 10.00 Partly Cloudy SCT110 89.4 72.7 95 87.8 58% 97 29.8 0.0
02 18:35 SE 8 10.00 Partly Cloudy SCT110 90.5 73.2 57% 99 29.8 0.0
02 18:15 SE 9 10.00 Fair CLR 92.3 72.9 53% 101 29.81 0.0
02 17:55 SE 9 10.00 Fair CLR 93.4 72.3 50% 102 29.81 0.0
02 17:35 SE 9 10.00 Fair CLR 94.1 72.5 50% 103 29.82 0.0
02 17:15 SE 9 10.00 Fair CLR 94.6 71.2 47% 102 29.82 0.0
02 16:55 SE 8 10.00 Fair CLR 94.5 70.9 46% 102 29.83 0.0
02 16:35 SE 8 10.00 Fair CLR 94.3 69.8 45% 100 29.84 0.0
02 16:15 S 7 10.00 Fair CLR 94.3 69.8 45% 100 29.85 0.0
02 15:55 S 9 10.00 Fair CLR 94.1 66.6 40% 98 29.86 0.0
02 15:35 S 10 10.00 Fair CLR 93.7 67.3 42% 98 29.86 0.0
02 15:15 S 9 10.00 Fair CLR 94.1 68 43% 99 29.87 0.0
02 14:55 S 8 G 16 10.00 Fair CLR 93.2 67.5 43% 97 29.87 0.0
02 14:35 S 10 10.00 Fair CLR 92.5 67.5 44% 96 29.88 0.0
02 14:15 S 12 G 16 10.00 Fair CLR 91.8 68.2 46% 96 29.88 0.0
02 13:55 S 9 10.00 Fair CLR 91.6 70.7 51% 98 29.89 0.0
02 13:35 SW 10 10.00 Fair CLR 90.7 69.6 50% 96 29.89 0.0
02 13:15 S 10 10.00 Fair CLR 89.6 69.3 51% 94 29.89 0.0
02 12:55 SW 10 10.00 Fair CLR 88.2 67.3 88.2 71.8 50% 91 29.9 0.0
02 12:35 S 10 10.00 Fair CLR 87.4 67.6 52% 91 29.9 0.0
02 12:15 SW 12 G 16 10.00 Fair CLR 86.2 67.8 54% 89 29.91 0.0
02 11:55 SW 9 10.00 Fair CLR 85.8 66.7 53% 88 29.91 0.0
02 11:35 SW 13 10.00 Fair CLR 86.7 67.3 52% 90 29.91 0.0
02 11:15 SW 13 G 17 10.00 Fair CLR 85.1 65.7 52% 87 29.91 0.0
02 10:55 SW 9 G 17 10.00 Fair CLR 84.4 66.2 54% 87 29.91 0.0
02 10:35 SW 12 G 17 10.00 Fair CLR 83.5 64.6 53% 85 29.91 0.0
02 10:15 SW 8 10.00 Fair CLR 82.2 65.3 57% 84 29.91 0.0
02 09:55 S 8 10.00 Fair CLR 80.8 65.3 59% 83 29.91 0.0
02 09:35 SW 9 10.00 Fair CLR 79 63 58% 81 29.91 0.0
02 09:15 SW 7 10.00 Fair CLR 77.2 64.2 64% 79 29.91 0.0
02 08:55 SW 8 10.00 Fair CLR 75.6 63.5 66% 77 29.91 0.0
02 08:35 S 6 10.00 Fair CLR 73.6 63.1 70% 29.91 0.0
02 08:15 SW 7 10.00 Fair CLR 73.4 62.6 69% 29.92 0.0
02 07:55 S 6 10.00 Fair CLR 72 61.9 71% 29.91 0.0
02 07:35 S 8 10.00 Fair CLR 72.1 61.9 70% 29.91 0.0
02 07:15 SW 9 10.00 Fair CLR 71.8 61.7 71% 29.91 0.0
02 06:55 S 9 10.00 Fair CLR 72.1 61.7 77.4 72.1 70% 29.9 0.0
02 06:35 S 8 10.00 Fair CLR 72.5 61.3 68% 29.9 0.0
Date Time (cdt) Wind (mph) Vis. (mi.) Weather Sky Cond. Air Dwpt Max. Min. Relative Humidity Wind Chill (°F) Heat Index (°F) altimeter (in) sea level (mb) 1 hr 3 hr 6 hr
6 hour
Temperature (ºF) Pressure Precipitation (in)